Time;durP1;ratioP1;P1;durP2;ratioP2;P2;SDS_P1;SDS_P2;PMS_P1;PMS_P2;Temp;Humidity;BMP_temperature;BMP_pressure;BME280_temperature;BME280_humidity;BME280_pressure;Samples;Min_cycle;Max_cycle;Signal;HPM_P1;HPM_P2
2021/05/27 00:00:41;;;;;;;;;;;;;;;20.65;72.25;100756.22;5069930;28;1605;-47
2021/05/27 00:03:07;;;;;;;;;;;;;;;20.65;72.22;100745.47;5067758;28;1611;-46
2021/05/27 00:05:33;;;;;;;;;;;;;;;20.63;71.85;100737.59;5069419;28;2172;-46
2021/05/27 00:08:00;;;;;;;;;;;;;;;20.61;70.92;100718.06;5069662;28;1910;-46
2021/05/27 00:10:28;;;;;;;;;;;;;;;20.62;71.01;100724.28;5067611;28;1390;-46
2021/05/27 00:12:54;;;;;;;;;;;;;;;20.64;71.10;100720.44;5071819;28;1584;-46
2021/05/27 00:15:21;;;;;;;;;;;;;;;20.73;71.59;100715.19;5066493;28;1425;-46
2021/05/27 00:17:47;;;;;;;;;;;;;;;20.73;69.79;100728.63;5066788;28;1933;-47
2021/05/27 00:20:14;;;;;;;;;;;;;;;20.71;70.41;100718.03;5073091;28;1611;-45
2021/05/27 00:22:40;;;;;;;;;;;;;;;20.75;69.98;100727.50;5072910;28;1469;-46
2021/05/27 00:25:08;;;;;;;;;;;;;;;20.79;70.63;100736.09;5067779;28;1300;-46
2021/05/27 00:27:34;;;;;;;;;;;;;;;20.70;71.63;100720.88;5070614;28;1917;-46
2021/05/27 00:30:00;;;;;;;;;;;;;;;20.68;70.77;100728.22;5059951;28;1705;-46
2021/05/27 00:32:26;;;;;;;;;;;;;;;20.66;71.63;100739.97;5060738;28;1357;-46
2021/05/27 00:34:52;;;;;;;;;;;;;;;20.67;72.22;100730.06;5057858;28;1471;-47
2021/05/27 00:37:18;;;;;;;;;;;;;;;20.65;71.83;100724.84;5072629;28;1507;-46
2021/05/27 00:39:44;;;;;;;;;;;;;;;20.66;73.15;100736.44;5077302;28;1631;-45
2021/05/27 00:42:11;;;;;;;;;;;;;;;20.65;74.62;100727.53;5068359;28;1550;-48
2021/05/27 00:44:37;;;;;;;;;;;;;;;20.63;72.02;100732.22;5070426;28;1581;-47
2021/05/27 00:47:07;;;;;;;;;;;;;;;20.63;72.82;100721.47;5074329;28;1355;-47
2021/05/27 00:49:33;;;;;;;;;;;;;;;20.63;72.08;100734.03;5072228;28;1967;-46
2021/05/27 00:51:59;;;;;;;;;;;;;;;20.62;72.54;100725.13;5065265;28;1790;-47
2021/05/27 00:54:25;;;;;;;;;;;;;;;20.65;72.91;100727.53;5065804;28;1557;-46
2021/05/27 00:56:52;;;;;;;;;;;;;;;20.64;73.89;100731.19;5068788;28;1576;-45
2021/05/27 00:59:19;;;;;;;;;;;;;;;20.63;72.09;100732.22;5070334;28;1611;-46
2021/05/27 01:01:47;;;;;;;;;;;;;;;20.62;72.33;100746.63;5078752;28;1637;-45
2021/05/27 01:04:13;;;;;;;;;;;;;;;20.63;71.84;100736.72;5073263;28;1360;-46
2021/05/27 01:06:39;;;;;;;;;;;;;;;20.61;71.26;100744.94;5075399;28;1392;-46
2021/05/27 01:09:06;;;;;;;;;;;;;;;20.63;70.95;100742.97;5070095;28;1987;-46
2021/05/27 01:11:32;;;;;;;;;;;;;;;20.63;71.64;100750.16;5068371;28;1555;-46
2021/05/27 01:13:58;;;;;;;;;;;;;;;20.64;70.71;100749.16;5077230;28;1578;-46
2021/05/27 01:16:24;;;;;;;;;;;;;;;20.61;70.47;100741.38;5068300;28;1670;-46
2021/05/27 01:18:50;;;;;;;;;;;;;;;20.61;71.09;100741.38;5078230;28;1452;-45
2021/05/27 01:21:17;;;;;;;;;;;;;;;20.60;70.84;100735.19;5072512;28;1560;-46
2021/05/27 01:23:44;;;;;;;;;;;;;;;20.62;71.75;100751.16;5069545;28;1579;-46
2021/05/27 01:26:12;;;;;;;;;;;;;;;20.59;71.00;100744.25;5074082;28;1689;-46
2021/05/27 01:28:38;;;;;;;;;;;;;;;20.56;71.95;100752.56;5065219;28;1902;-46
2021/05/27 01:31:06;;;;;;;;;;;;;;;20.57;72.16;100753.38;5069203;28;1567;-45
2021/05/27 01:33:32;;;;;;;;;;;;;;;20.57;71.78;100751.56;5070162;28;1634;-46
2021/05/27 01:36:00;;;;;;;;;;;;;;;20.59;71.68;100741.56;5072555;28;1749;-46
2021/05/27 01:38:27;;;;;;;;;;;;;;;20.58;71.90;100758.63;5065987;28;1552;-46
2021/05/27 01:40:54;;;;;;;;;;;;;;;20.59;71.92;100738.00;5076978;28;1509;-45
2021/05/27 01:43:21;;;;;;;;;;;;;;;20.56;71.43;100738.28;5072815;28;1387;-46
2021/05/27 01:45:47;;;;;;;;;;;;;;;20.56;71.01;100739.13;5067017;28;1595;-46
2021/05/27 01:48:13;;;;;;;;;;;;;;;20.55;70.57;100750.00;5071895;28;1985;-47
2021/05/27 01:50:40;;;;;;;;;;;;;;;20.57;70.08;100750.69;5061852;28;1574;-46
2021/05/27 01:53:06;;;;;;;;;;;;;;;20.55;70.60;100748.19;5067389;28;1608;-46
2021/05/27 01:55:33;;;;;;;;;;;;;;;20.55;70.91;100734.75;5072613;28;1490;-46
2021/05/27 01:58:00;;;;;;;;;;;;;;;20.54;70.07;100741.09;5076926;28;1644;-45
2021/05/27 02:02:57;;;;;;;;;;;;;;;20.55;70.96;100725.81;5007315;28;1659;-45
2021/05/27 02:05:23;;;;;;;;;;;;;;;20.54;70.01;100737.59;5023211;28;1992;-45
2021/05/27 02:07:53;;;;;;;;;;;;;;;20.52;70.02;100726.97;5006476;28;1906;-44
2021/05/27 02:10:19;;;;;;;;;;;;;;;20.53;69.46;100736.75;5016026;28;1269;-45
2021/05/27 02:12:48;;;;;;;;;;;;;;;20.52;69.45;100736.88;5016634;28;1718;-44
2021/05/27 02:15:22;;;;;;;;;;;;;;;20.54;70.52;100733.03;5033734;28;1744;-44
2021/05/27 02:17:49;;;;;;;;;;;;;;;20.53;69.57;100739.44;5016213;28;1224;-44
2021/05/27 02:20:17;;;;;;;;;;;;;;;20.54;69.09;100737.59;5015881;28;1099;-45
2021/05/27 02:25:24;;;;;;;;;;;;;;;20.53;68.88;100730.50;5021460;28;2443;-45
2021/05/27 02:27:59;;;;;;;;;;;;;;;20.52;69.23;100743.09;5015925;28;1910;-44
2021/05/27 02:30:41;;;;;;;;;;;;;;;20.52;68.45;100731.50;5007633;28;1529;-45
2021/05/27 02:33:10;;;;;;;;;;;;;;;20.53;68.51;100723.31;5002828;28;2057;-44
2021/05/27 02:35:40;;;;;;;;;;;;;;;20.53;67.92;100733.19;5014201;28;1455;-44
2021/05/27 02:38:09;;;;;;;;;;;;;;;20.49;67.56;100738.00;5011594;28;1677;-44
2021/05/27 02:40:35;;;;;;;;;;;;;;;20.50;68.10;100737.03;5024437;28;1716;-45
2021/05/27 02:43:04;;;;;;;;;;;;;;;20.48;67.17;100720.19;5014853;28;1211;-45
2021/05/27 02:45:32;;;;;;;;;;;;;;;20.46;67.44;100741.84;5017788;28;1443;-45
2021/05/27 02:47:58;;;;;;;;;;;;;;;20.45;67.20;100715.09;5014417;28;1998;-44
2021/05/27 02:50:30;;;;;;;;;;;;;;;20.45;67.57;100707.91;5015378;28;1476;-45
2021/05/27 02:52:59;;;;;;;;;;;;;;;20.46;67.99;100727.56;5024858;28;1656;-44
2021/05/27 02:55:27;;;;;;;;;;;;;;;20.42;67.02;100731.53;5021330;28;1495;-44
2021/05/27 02:57:53;;;;;;;;;;;;;;;20.45;67.20;100739.28;5017998;28;1452;-45
2021/05/27 03:00:21;;;;;;;;;;;;;;;20.46;67.16;100735.63;5014284;28;1474;-45
2021/05/27 03:02:51;;;;;;;;;;;;;;;20.48;67.58;100748.91;5012352;28;1478;-44
2021/05/27 03:05:17;;;;;;;;;;;;;;;20.47;67.12;100737.31;5013649;28;1338;-45
2021/05/27 03:07:46;;;;;;;;;;;;;;;20.45;67.66;100742.84;5013751;28;1384;-44
2021/05/27 03:10:13;;;;;;;;;;;;;;;20.48;67.03;100747.06;5013280;28;1609;-44
2021/05/27 03:12:43;;;;;;;;;;;;;;;20.48;67.45;100741.69;5013392;28;1387;-45
2021/05/27 03:15:10;;;;;;;;;;;;;;;20.45;67.43;100750.03;5012679;28;1754;-44
2021/05/27 03:17:37;;;;;;;;;;;;;;;20.45;66.50;100768.84;5013738;28;1454;-44
2021/05/27 03:20:04;;;;;;;;;;;;;;;20.47;66.30;100769.53;5012725;28;1519;-45
2021/05/27 03:22:30;;;;;;;;;;;;;;;20.48;66.30;100773.09;5016957;28;1240;-46
2021/05/27 03:25:09;;;;;;;;;;;;;;;20.47;66.21;100774.91;5018596;28;1311;-44
2021/05/27 03:27:38;;;;;;;;;;;;;;;20.50;66.48;100763.88;5013691;28;2002;-45
2021/05/27 03:30:05;;;;;;;;;;;;;;;20.62;65.86;100749.31;5008845;28;1967;-44
2021/05/27 03:32:32;;;;;;;;;;;;;;;20.63;65.88;100750.16;5011968;28;1446;-44
2021/05/27 03:34:58;;;;;;;;;;;;;;;20.63;68.14;100747.47;5011598;28;1369;-44
2021/05/27 03:37:24;;;;;;;;;;;;;;;20.69;65.70;100752.28;5007746;28;1236;-44
2021/05/27 03:42:34;;;;;;;;;;;;;;;20.67;66.28;100754.22;4995401;28;1408;-45
2021/05/27 03:45:00;;;;;;;;;;;;;;;20.68;66.08;100772.06;5001553;28;1441;-45
2021/05/27 03:47:26;;;;;;;;;;;;;;;20.77;67.55;100779.25;5010466;28;1454;-44
2021/05/27 03:49:52;;;;;;;;;;;;;;;20.87;67.77;100771.16;5015805;28;1915;-45
2021/05/27 03:52:18;;;;;;;;;;;;;;;20.94;67.12;100783.00;5006992;28;1196;-45
2021/05/27 03:54:44;;;;;;;;;;;;;;;20.94;66.38;100766.88;5001961;28;1605;-44
2021/05/27 03:57:10;;;;;;;;;;;;;;;20.98;65.63;100789.78;5004528;28;1549;-44
2021/05/27 04:02:40;;;;;;;;;;;;;;;20.88;65.54;100794.34;4966280;28;1449;-44
2021/05/27 04:07:51;;;;;;;;;;;;;;;20.80;65.28;100807.66;4982092;28;1409;-46
2021/05/27 04:10:17;;;;;;;;;;;;;;;20.73;66.19;100806.56;5019030;28;1488;-44
2021/05/27 04:12:46;;;;;;;;;;;;;;;20.73;66.12;100818.16;5018088;28;1767;-44
2021/05/27 04:15:23;;;;;;;;;;;;;;;20.74;65.06;100809.09;5018708;28;1618;-44
2021/05/27 04:17:52;;;;;;;;;;;;;;;20.79;66.25;100824.78;5017193;28;1453;-44
2021/05/27 04:20:18;;;;;;;;;;;;;;;20.82;66.12;100814.59;5011786;28;1501;-44
2021/05/27 04:22:45;;;;;;;;;;;;;;;20.77;66.30;100816.00;5011271;28;1701;-44
2021/05/27 04:25:12;;;;;;;;;;;;;;;20.79;66.57;100824.78;5018787;28;1503;-45
2021/05/27 04:27:39;;;;;;;;;;;;;;;20.83;66.43;100828.88;5018669;28;1151;-44
2021/05/27 04:30:13;;;;;;;;;;;;;;;20.84;65.48;100834.09;5012153;28;1965;-44
2021/05/27 04:32:54;;;;;;;;;;;;;;;20.80;64.23;100835.38;5012725;28;1392;-44
2021/05/27 04:35:20;;;;;;;;;;;;;;;20.58;65.39;100828.47;5020342;28;1423;-44
2021/05/27 04:37:46;;;;;;;;;;;;;;;20.75;65.45;100826.94;5007512;28;1595;-46
2021/05/27 04:40:12;;;;;;;;;;;;;;;20.77;68.78;100816.00;5010081;28;1516;-44
2021/05/27 04:42:38;;;;;;;;;;;;;;;20.70;65.54;100793.41;5009958;28;2051;-44
2021/05/27 04:45:05;;;;;;;;;;;;;;;20.38;66.17;100786.53;5006978;28;1400;-45
2021/05/27 04:47:31;;;;;;;;;;;;;;;20.14;66.37;100774.41;5011529;28;1355;-44
2021/05/27 04:49:58;;;;;;;;;;;;;;;20.10;66.75;100796.31;5011260;28;1914;-44
2021/05/27 04:52:24;;;;;;;;;;;;;;;20.22;66.23;100804.06;5012304;28;1303;-44
2021/05/27 04:54:50;;;;;;;;;;;;;;;20.35;65.67;100819.91;5013744;28;1737;-44
2021/05/27 04:57:16;;;;;;;;;;;;;;;20.49;66.51;100812.38;5013639;28;1415;-45
2021/05/27 04:59:42;;;;;;;;;;;;;;;20.74;63.99;100819.00;5011021;28;1424;-44
2021/05/27 05:02:08;;;;;;;;;;;;;;;20.86;63.79;100812.47;5011141;28;1357;-44
2021/05/27 05:04:33;;;;;;;;;;;;;;;20.80;64.52;100808.50;5013728;28;1455;-44
2021/05/27 05:07:00;;;;;;;;;;;;;;;20.78;64.19;100806.97;5006070;28;1647;-46
2021/05/27 05:09:27;;;;;;;;;;;;;;;20.74;65.49;100795.66;5009151;28;1969;-44
2021/05/27 05:11:53;;;;;;;;;;;;;;;20.73;64.99;100787.75;5013164;28;1273;-44
2021/05/27 05:14:20;;;;;;;;;;;;;;;20.77;64.45;100791.81;5008020;28;1411;-45
2021/05/27 05:16:46;;;;;;;;;;;;;;;20.85;64.32;100805.41;5012552;28;1463;-44
2021/05/27 05:19:12;;;;;;;;;;;;;;;20.82;70.01;100811.06;5012060;28;1197;-44
2021/05/27 05:21:38;;;;;;;;;;;;;;;20.81;69.36;100812.03;5014322;28;1757;-44
2021/05/27 05:24:06;;;;;;;;;;;;;;;20.86;68.08;100807.09;5013121;28;1752;-44
2021/05/27 05:26:32;;;;;;;;;;;;;;;20.89;68.48;100812.19;5010393;28;1868;-44
2021/05/27 05:28:58;;;;;;;;;;;;;;;20.87;69.46;100808.78;5006246;28;1902;-45
2021/05/27 05:31:24;;;;;;;;;;;;;;;20.92;68.22;100798.44;5010561;28;1382;-45
2021/05/27 05:33:54;;;;;;;;;;;;;;;21.00;67.83;100803.91;5010463;28;1572;-45
2021/05/27 05:36:20;;;;;;;;;;;;;;;21.02;63.87;100793.00;5008275;28;1459;-44
2021/05/27 05:38:46;;;;;;;;;;;;;;;20.88;64.20;100788.13;5008273;28;1443;-45
2021/05/27 05:41:13;;;;;;;;;;;;;;;20.94;64.36;100788.38;5012228;28;1531;-45
2021/05/27 05:43:39;;;;;;;;;;;;;;;21.05;65.89;100788.19;5013158;28;1470;-44
2021/05/27 05:46:06;;;;;;;;;;;;;;;21.18;64.83;100795.06;5016718;28;1542;-43
2021/05/27 05:48:32;;;;;;;;;;;;;;;21.32;65.94;100783.81;5017477;28;1974;-44
2021/05/27 05:51:00;;;;;;;;;;;;;;;21.32;67.27;100793.72;5016121;28;1798;-44
2021/05/27 05:53:26;;;;;;;;;;;;;;;21.33;67.21;100798.97;5018235;28;1785;-45
2021/05/27 05:55:53;;;;;;;;;;;;;;;21.34;66.18;100800.63;5010621;28;1870;-45
2021/05/27 05:58:20;;;;;;;;;;;;;;;21.39;67.91;100790.28;5019049;28;1630;-45
2021/05/27 06:00:46;;;;;;;;;;;;;;;21.42;68.31;100816.03;5007640;28;1950;-45
2021/05/27 06:03:12;;;;;;;;;;;;;;;21.41;68.33;100828.63;5019107;28;1809;-45
2021/05/27 06:05:38;;;;;;;;;;;;;;;21.47;67.51;100818.28;5017258;28;1753;-46
2021/05/27 06:08:05;;;;;;;;;;;;;;;21.53;67.38;100833.84;5006928;28;2012;-46
2021/05/27 06:10:31;;;;;;;;;;;;;;;21.54;68.02;100827.47;5009752;28;1642;-46
2021/05/27 06:12:58;;;;;;;;;;;;;;;21.54;67.56;100832.84;5013539;28;1679;-46
2021/05/27 06:15:25;;;;;;;;;;;;;;;21.45;67.67;100848.91;5009244;28;2010;-47
2021/05/27 06:17:52;;;;;;;;;;;;;;;21.44;67.68;100852.56;5012327;28;1603;-47
2021/05/27 06:20:19;;;;;;;;;;;;;;;21.47;68.05;100856.81;5017552;28;1689;-48
2021/05/27 06:22:45;;;;;;;;;;;;;;;21.39;68.40;100841.41;5012083;28;2047;-48
2021/05/27 06:25:12;;;;;;;;;;;;;;;21.39;68.49;100845.94;5019066;28;1559;-49
2021/05/27 06:27:38;;;;;;;;;;;;;;;21.43;67.87;100853.59;5022676;28;1086;-46
2021/05/27 06:30:05;;;;;;;;;;;;;;;21.45;68.20;100830.06;5009238;28;1907;-47
2021/05/27 06:32:34;;;;;;;;;;;;;;;21.47;68.55;100845.19;5009679;28;1534;-48
2021/05/27 06:35:00;;;;;;;;;;;;;;;21.45;68.63;100846.22;5009598;28;1812;-48
2021/05/27 06:37:26;;;;;;;;;;;;;;;21.43;68.34;100864.34;5010328;28;1470;-48
2021/05/27 06:39:52;;;;;;;;;;;;;;;21.48;68.14;100849.59;5009815;28;1832;-48
2021/05/27 06:42:19;;;;;;;;;;;;;;;21.52;68.59;100867.13;5007988;28;1705;-47
2021/05/27 06:44:45;;;;;;;;;;;;;;;21.58;68.10;100869.22;5008466;28;1563;-49
2021/05/27 06:47:11;;;;;;;;;;;;;;;21.53;68.01;100858.06;5013028;28;1464;-48
2021/05/27 06:49:38;;;;;;;;;;;;;;;21.52;67.29;100857.22;5013584;28;1906;-48
2021/05/27 06:52:04;;;;;;;;;;;;;;;21.51;68.01;100854.69;5017448;28;1743;-47
2021/05/27 06:54:31;;;;;;;;;;;;;;;21.51;68.01;100855.53;5017999;28;1941;-47
2021/05/27 06:56:57;;;;;;;;;;;;;;;21.59;67.43;100871.75;5015859;28;1628;-49
2021/05/27 06:59:23;;;;;;;;;;;;;;;21.52;67.44;100859.91;5014992;28;1095;-47
2021/05/27 07:01:49;;;;;;;;;;;;;;;21.54;67.27;100870.53;5018858;28;1794;-47
2021/05/27 07:04:15;;;;;;;;;;;;;;;21.56;67.70;100868.53;5017102;28;1576;-47
2021/05/27 07:06:42;;;;;;;;;;;;;;;21.62;67.62;100867.91;5013347;28;1687;-47
2021/05/27 07:09:08;;;;;;;;;;;;;;;21.61;67.81;100880.53;5018735;28;1918;-47
2021/05/27 07:11:34;;;;;;;;;;;;;;;21.58;67.55;100866.53;5019696;28;1809;-47
2021/05/27 07:14:00;;;;;;;;;;;;;;;21.57;68.04;100886.38;5014546;28;1856;-47
2021/05/27 07:16:27;;;;;;;;;;;;;;;21.55;68.60;100872.22;5015829;28;1890;-48
2021/05/27 07:18:53;;;;;;;;;;;;;;;21.49;69.61;100878.19;5012909;28;1832;-48
2021/05/27 07:21:19;;;;;;;;;;;;;;;21.48;69.50;100877.34;5009482;28;1502;-47
2021/05/27 07:23:46;;;;;;;;;;;;;;;21.46;68.89;100879.34;5012486;28;1504;-48
2021/05/27 07:26:13;;;;;;;;;;;;;;;21.45;68.68;100875.81;5014935;28;1542;-47
2021/05/27 07:28:38;;;;;;;;;;;;;;;21.41;69.49;100866.31;5014497;28;1981;-47
2021/05/27 07:31:06;;;;;;;;;;;;;;;21.53;67.77;100869.69;5011873;28;1546;-47
2021/05/27 07:33:32;;;;;;;;;;;;;;;21.56;67.81;100863.13;5011114;28;1660;-47
2021/05/27 07:35:58;;;;;;;;;;;;;;;21.61;67.52;100861.69;5012515;28;2081;-47
2021/05/27 07:38:24;;;;;;;;;;;;;;;21.60;67.26;100851.06;5012971;28;1570;-46
2021/05/27 07:41:12;;;;;;;;;;;;;;;21.63;67.23;100858.88;5013603;28;1653;-45
2021/05/27 07:43:39;;;;;;;;;;;;;;;21.61;66.60;100850.94;5014820;28;1538;-45
2021/05/27 07:46:07;;;;;;;;;;;;;;;21.50;66.44;100850.28;5014092;28;2001;-46
2021/05/27 07:48:41;;;;;;;;;;;;;;;21.42;67.92;100854.53;5013735;28;1905;-48
2021/05/27 07:51:07;;;;;;;;;;;;;;;21.41;66.72;100842.09;5013834;28;1255;-46
2021/05/27 07:53:34;;;;;;;;;;;;;;;21.48;66.06;100844.22;5017096;28;1517;-46
2021/05/27 07:56:05;;;;;;;;;;;;;;;21.57;66.28;100859.47;5007117;28;1589;-47
2021/05/27 07:58:33;;;;;;;;;;;;;;;21.59;65.62;100861.00;5016444;28;1930;-46
2021/05/27 08:00:59;;;;;;;;;;;;;;;21.64;65.68;100856.00;5017313;28;1586;-46
2021/05/27 08:03:26;;;;;;;;;;;;;;;21.60;64.37;100856.47;5012830;28;1608;-46
2021/05/27 08:05:59;;;;;;;;;;;;;;;21.55;66.36;100839.94;5008520;28;1558;-47
2021/05/27 08:08:34;;;;;;;;;;;;;;;21.61;65.76;100867.06;5013969;28;1954;-46
2021/05/27 08:11:16;;;;;;;;;;;;;;;21.61;65.95;100850.09;5011091;28;1531;-46
2021/05/27 08:13:43;;;;;;;;;;;;;;;21.53;66.34;100864.28;5012178;28;1219;-46
2021/05/27 08:16:09;;;;;;;;;;;;;;;21.49;66.12;100856.66;5012163;28;1715;-47
2021/05/27 08:18:35;;;;;;;;;;;;;;;21.54;65.41;100833.69;5011123;28;1468;-47
2021/05/27 08:21:03;;;;;;;;;;;;;;;21.51;65.42;100828.63;5015655;28;1511;-46
2021/05/27 08:26:15;;;;;;;;;;;;;;;21.40;65.74;100824.25;5013202;28;2158;-46
2021/05/27 08:28:46;;;;;;;;;;;;;;;21.38;65.87;100818.16;5010844;28;1906;-47
2021/05/27 08:31:14;;;;;;;;;;;;;;;21.37;64.90;100810.28;5012278;28;1428;-45
2021/05/27 08:33:41;;;;;;;;;;;;;;;21.35;64.31;100802.34;5010565;28;1336;-45
2021/05/27 08:36:07;;;;;;;;;;;;;;;21.36;63.47;100804.03;5011527;28;1392;-47
2021/05/27 08:38:34;;;;;;;;;;;;;;;21.40;64.97;100813.47;5009550;28;1725;-47
2021/05/27 08:41:00;;;;;;;;;;;;;;;21.49;64.31;100802.84;5014847;28;1468;-46
2021/05/27 08:43:32;;;;;;;;;;;;;;;21.46;63.61;100787.84;5013123;28;1811;-45
2021/05/27 08:46:14;;;;;;;;;;;;;;;21.49;63.03;100786.69;5014581;28;1551;-46
2021/05/27 08:48:42;;;;;;;;;;;;;;;21.45;64.82;100792.41;5011193;28;1910;-46
2021/05/27 08:51:28;;;;;;;;;;;;;;;21.49;66.12;100797.47;5013371;28;1443;-46
2021/05/27 08:53:58;;;;;;;;;;;;;;;21.39;68.68;100781.38;5013654;28;1828;-46
2021/05/27 08:56:24;;;;;;;;;;;;;;;21.40;65.26;100800.03;5016688;28;1780;-45
2021/05/27 08:58:55;;;;;;;;;;;;;;;21.35;67.54;100807.72;5013618;28;1725;-46
2021/05/27 09:01:23;;;;;;;;;;;;;;;21.38;65.97;100801.19;5012407;28;1436;-46
2021/05/27 09:03:55;;;;;;;;;;;;;;;21.38;65.31;100811.94;5014342;28;1796;-46
2021/05/27 09:06:21;;;;;;;;;;;;;;;21.44;64.45;100824.81;5020075;28;1412;-46
2021/05/27 09:08:49;;;;;;;;;;;;;;;21.50;63.50;100815.31;5020619;28;1977;-45
2021/05/27 09:11:15;;;;;;;;;;;;;;;21.53;65.28;100825.78;5016325;28;1440;-45
2021/05/27 09:13:53;;;;;;;;;;;;;;;21.59;65.13;100823.31;5015111;28;1433;-46
2021/05/27 09:16:19;;;;;;;;;;;;;;;21.61;65.18;100815.13;5012997;28;1577;-45
2021/05/27 09:18:49;;;;;;;;;;;;;;;21.50;66.54;100823.38;5013533;28;1580;-45
2021/05/27 09:21:40;;;;;;;;;;;;;;;21.43;69.24;100831.22;5013469;28;1995;-45
2021/05/27 09:24:07;;;;;;;;;;;;;;;21.41;69.78;100831.34;5019880;28;1685;-45
2021/05/27 09:26:48;;;;;;;;;;;;;;;21.39;68.04;100824.41;5020018;28;1634;-45
2021/05/27 09:29:14;;;;;;;;;;;;;;;21.40;69.60;100834.16;5012468;28;1916;-45
2021/05/27 09:31:55;;;;;;;;;;;;;;;21.38;69.21;100812.78;5010798;28;1774;-46
2021/05/27 09:34:21;;;;;;;;;;;;;;;21.36;69.35;100804.03;5022243;28;1769;-46
2021/05/27 09:36:58;;;;;;;;;;;;;;;21.38;69.81;100817.31;5021084;28;1702;-46
2021/05/27 09:39:38;;;;;;;;;;;;;;;21.38;69.66;100810.09;5007921;28;1747;-46
2021/05/27 09:42:04;;;;;;;;;;;;;;;21.39;69.51;100800.19;5010193;28;1644;-46
2021/05/27 09:44:30;;;;;;;;;;;;;;;21.38;69.39;100801.19;5029646;28;1601;-45
2021/05/27 09:46:57;;;;;;;;;;;;;;;21.36;69.62;100798.63;5023236;28;1202;-45
2021/05/27 09:49:25;;;;;;;;;;;;;;;21.36;69.34;100789.72;5013126;28;1910;-45
2021/05/27 09:51:51;;;;;;;;;;;;;;;21.34;69.58;100808.69;5012267;28;1772;-45
2021/05/27 09:54:18;;;;;;;;;;;;;;;21.34;69.35;100789.88;5014786;28;1633;-45
2021/05/27 09:56:44;;;;;;;;;;;;;;;21.35;68.96;100805.03;5010651;28;1668;-46
2021/05/27 09:59:11;;;;;;;;;;;;;;;21.32;70.26;100799.09;5005082;28;1414;-45
2021/05/27 10:01:37;;;;;;;;;;;;;;;21.33;69.74;100798.97;5011858;28;1413;-46
2021/05/27 10:04:13;;;;;;;;;;;;;;;21.33;69.69;100800.78;5015752;28;1462;-45
2021/05/27 10:06:39;;;;;;;;;;;;;;;21.34;68.94;100781.81;5018630;28;1948;-45
2021/05/27 10:09:08;;;;;;;;;;;;;;;21.34;68.88;100773.72;5011726;28;1902;-46
2021/05/27 10:11:38;;;;;;;;;;;;;;;21.35;69.11;100775.44;5008789;28;1725;-46
2021/05/27 10:14:04;;;;;;;;;;;;;;;21.36;69.41;100787.88;5005184;28;1379;-46
2021/05/27 10:16:30;;;;;;;;;;;;;;;21.37;69.26;100773.44;5016221;28;1772;-45
2021/05/27 10:18:57;;;;;;;;;;;;;;;21.34;69.64;100784.50;5017023;28;1611;-45
2021/05/27 10:21:24;;;;;;;;;;;;;;;21.32;69.33;100759.59;5019634;28;1786;-46
2021/05/27 10:23:50;;;;;;;;;;;;;;;21.33;69.37;100777.44;5022380;28;1646;-45
2021/05/27 10:26:16;;;;;;;;;;;;;;;21.33;68.62;100765.81;5021183;28;1425;-46
2021/05/27 10:28:47;;;;;;;;;;;;;;;21.33;69.10;100779.25;5017414;28;1902;-45
2021/05/27 10:31:14;;;;;;;;;;;;;;;21.34;69.16;100776.44;5016303;28;1796;-45
2021/05/27 10:33:40;;;;;;;;;;;;;;;21.36;69.61;100768.22;5015283;28;1612;-45
2021/05/27 10:36:08;;;;;;;;;;;;;;;21.33;69.26;100761.31;5015667;28;1302;-45
2021/05/27 10:38:44;;;;;;;;;;;;;;;21.33;69.13;100755.91;5015403;28;1792;-46
2021/05/27 10:41:11;;;;;;;;;;;;;;;21.32;69.31;100743.44;5016941;28;1779;-46
2021/05/27 10:43:37;;;;;;;;;;;;;;;21.33;68.95;100730.84;5016925;28;1015;-45
2021/05/27 10:46:05;;;;;;;;;;;;;;;21.33;69.21;100726.34;5019073;28;1776;-45
2021/05/27 10:48:32;;;;;;;;;;;;;;;21.34;69.47;100754.06;5024411;28;1801;-45
2021/05/27 10:51:17;;;;;;;;;;;;;;;21.34;68.83;100752.22;5020275;28;1487;-45
2021/05/27 10:53:57;;;;;;;;;;;;;;;21.34;69.32;100762.97;5019288;28;1462;-46
2021/05/27 10:56:38;;;;;;;;;;;;;;;21.32;69.51;100756.91;5023336;28;1410;-45
2021/05/27 10:59:04;;;;;;;;;;;;;;;21.30;69.36;100771.50;5031449;28;1070;-45
2021/05/27 11:01:48;;;;;;;;;;;;;;;21.30;68.62;100772.34;5029082;28;1712;-45
2021/05/27 11:04:23;;;;;;;;;;;;;;;21.28;69.58;100768.97;5013919;28;1911;-45
2021/05/27 11:06:49;;;;;;;;;;;;;;;21.29;69.34;100743.78;5018288;28;1441;-46
2021/05/27 11:09:33;;;;;;;;;;;;;;;21.30;68.62;100728.47;5017429;28;1914;-46
2021/05/27 11:12:09;;;;;;;;;;;;;;;21.30;69.13;100740.06;5025138;28;1848;-47
2021/05/27 11:14:37;;;;;;;;;;;;;;;21.29;68.77;100730.31;5019974;28;1677;-46
2021/05/27 11:17:17;;;;;;;;;;;;;;;21.29;68.75;100738.38;5015619;28;1027;-46
2021/05/27 11:19:48;;;;;;;;;;;;;;;21.30;68.69;100740.06;5026548;28;1060;-46
2021/05/27 11:22:35;;;;;;;;;;;;;;;21.29;69.42;100751.84;5028120;28;1435;-45
2021/05/27 11:25:24;;;;;;;;;;;;;;;21.28;68.71;100746.59;5023418;28;1977;-46
2021/05/27 11:27:52;;;;;;;;;;;;;;;21.28;69.02;100747.44;5020412;28;1641;-46
2021/05/27 11:30:20;;;;;;;;;;;;;;;21.27;69.44;100726.94;5027772;28;1903;-47
2021/05/27 11:32:47;;;;;;;;;;;;;;;21.28;68.43;100736.69;5017479;28;1610;-45
2021/05/27 11:35:14;;;;;;;;;;;;;;;21.27;68.99;100735.00;5024005;28;1583;-46
2021/05/27 11:37:41;;;;;;;;;;;;;;;21.28;68.88;100736.69;5028692;28;1616;-46
2021/05/27 11:40:09;;;;;;;;;;;;;;;21.25;69.15;100732.47;5023899;28;1108;-46
2021/05/27 11:42:35;;;;;;;;;;;;;;;21.26;69.39;100749.44;5014674;28;1918;-46
2021/05/27 11:45:03;;;;;;;;;;;;;;;21.26;69.31;100752.97;5014390;28;1963;-47
2021/05/27 11:47:30;;;;;;;;;;;;;;;21.24;68.39;100735.28;5021369;28;1436;-46
2021/05/27 11:50:04;;;;;;;;;;;;;;;21.25;68.79;100737.84;5018711;28;1986;-48
2021/05/27 11:52:31;;;;;;;;;;;;;;;21.24;68.62;100730.75;5023614;28;1507;-46
2021/05/27 11:54:57;;;;;;;;;;;;;;;21.24;68.83;100724.53;5015715;28;1665;-45
2021/05/27 11:57:39;;;;;;;;;;;;;;;21.25;69.37;100734.31;5012893;28;1799;-46
2021/05/27 12:00:05;;;;;;;;;;;;;;;21.23;69.12;100733.63;5011597;28;1770;-45
2021/05/27 12:02:41;;;;;;;;;;;;;;;21.25;68.97;100710.09;5013219;28;1439;-46
2021/05/27 12:05:18;;;;;;;;;;;;;;;21.26;69.05;100698.34;5008463;28;1645;-45
2021/05/27 12:07:56;;;;;;;;;;;;;;;21.25;68.56;100715.50;5014303;28;1601;-46
2021/05/27 12:10:22;;;;;;;;;;;;;;;21.29;68.14;100724.94;5015239;28;1906;-45
2021/05/27 12:12:48;;;;;;;;;;;;;;;21.25;68.67;100719.00;5013096;28;2362;-45
2021/05/27 12:15:15;;;;;;;;;;;;;;;21.27;68.27;100697.34;5018471;28;1718;-46
2021/05/27 12:17:45;;;;;;;;;;;;;;;21.29;68.21;100703.44;5022875;28;1665;-46
2021/05/27 12:20:14;;;;;;;;;;;;;;;21.25;68.28;100693.97;5023498;28;1608;-45
2021/05/27 12:22:47;;;;;;;;;;;;;;;21.25;69.13;100702.03;5027570;28;1148;-45
2021/05/27 12:25:14;;;;;;;;;;;;;;;21.27;68.22;100694.66;5019500;28;1604;-46
2021/05/27 12:27:41;;;;;;;;;;;;;;;21.25;69.18;100696.66;5011600;28;1379;-46
2021/05/27 12:30:08;;;;;;;;;;;;;;;21.27;68.92;100694.66;5022785;28;1969;-46
2021/05/27 12:32:34;;;;;;;;;;;;;;;21.27;68.16;100686.59;5011312;28;1642;-47
2021/05/27 12:35:00;;;;;;;;;;;;;;;21.24;68.55;100682.34;5020975;28;1764;-46
2021/05/27 12:37:36;;;;;;;;;;;;;;;21.24;68.78;100679.66;5020671;28;1768;-46
2021/05/27 12:40:04;;;;;;;;;;;;;;;21.24;69.19;100665.38;5015516;28;1477;-45
2021/05/27 12:42:35;;;;;;;;;;;;;;;21.26;68.95;100660.69;5021616;28;1544;-44
2021/05/27 12:45:02;;;;;;;;;;;;;;;21.25;67.91;100659.84;5022591;28;1681;-46
2021/05/27 12:47:28;;;;;;;;;;;;;;;21.25;68.37;100656.31;5020490;28;1598;-46
2021/05/27 12:49:54;;;;;;;;;;;;;;;21.26;68.41;100658.00;5021267;28;2039;-46
2021/05/27 12:52:36;;;;;;;;;;;;;;;21.25;68.85;100650.94;5022141;28;1086;-46
2021/05/27 12:55:02;;;;;;;;;;;;;;;21.24;68.81;100620.50;5013363;28;1553;-46
2021/05/27 12:57:28;;;;;;;;;;;;;;;21.22;69.00;100640.47;5023070;28;1606;-45
2021/05/27 12:59:56;;;;;;;;;;;;;;;21.22;68.84;100619.81;5020819;28;1937;-46
2021/05/27 13:02:23;;;;;;;;;;;;;;;21.21;68.42;100634.25;5023321;28;1388;-45
2021/05/27 13:04:49;;;;;;;;;;;;;;;21.23;68.09;100640.31;5024058;28;1786;-45
2021/05/27 13:07:17;;;;;;;;;;;;;;;21.25;69.12;100634.81;5013243;28;1727;-47
2021/05/27 13:09:44;;;;;;;;;;;;;;;21.25;68.56;100648.25;5002097;28;1972;-46